sensor_id;sensor_type;location;lat;lon;timestamp;noise_LAeq;noise_LA_min;noise_LA_max;noise_LA01;noise_LA95
50333;Laerm;36239;48.132;-1.210;2023-08-01T00:01:30;41.38;34.31;63.30;;
50333;Laerm;36239;48.132;-1.210;2023-08-01T00:03:57;39.08;34.69;55.23;;
50333;Laerm;36239;48.132;-1.210;2023-08-01T00:06:23;44.56;33.90;70.29;;
50333;Laerm;36239;48.132;-1.210;2023-08-01T00:08:51;49.86;34.31;76.11;;
50333;Laerm;36239;48.132;-1.210;2023-08-01T00:11:17;43.13;34.31;70.06;;
50333;Laerm;36239;48.132;-1.210;2023-08-01T00:13:43;39.40;34.69;54.53;;
50333;Laerm;36239;48.132;-1.210;2023-08-01T00:16:09;38.42;34.31;54.39;;
50333;Laerm;36239;48.132;-1.210;2023-08-01T00:18:35;60.74;34.69;85.02;;
50333;Laerm;36239;48.132;-1.210;2023-08-01T00:21:01;39.70;33.90;54.46;;
50333;Laerm;36239;48.132;-1.210;2023-08-01T00:23:27;46.54;34.31;70.52;;
50333;Laerm;36239;48.132;-1.210;2023-08-01T00:25:53;38.92;33.90;52.29;;
50333;Laerm;36239;48.132;-1.210;2023-08-01T00:28:21;43.62;33.90;65.70;;
50333;Laerm;36239;48.132;-1.210;2023-08-01T00:30:47;38.69;34.31;49.32;;
50333;Laerm;36239;48.132;-1.210;2023-08-01T00:33:13;38.72;34.69;46.52;;
50333;Laerm;36239;48.132;-1.210;2023-08-01T00:35:40;51.24;33.90;76.38;;
50333;Laerm;36239;48.132;-1.210;2023-08-01T00:38:06;38.23;33.44;47.18;;
50333;Laerm;36239;48.132;-1.210;2023-08-01T00:40:33;39.06;32.93;61.12;;
50333;Laerm;36239;48.132;-1.210;2023-08-01T00:42:59;42.27;33.44;68.51;;
50333;Laerm;36239;48.132;-1.210;2023-08-01T00:45:26;38.54;30.89;55.77;;
50333;Laerm;36239;48.132;-1.210;2023-08-01T00:47:53;39.13;32.93;56.23;;
50333;Laerm;36239;48.132;-1.210;2023-08-01T00:50:19;38.44;33.44;46.50;;
50333;Laerm;36239;48.132;-1.210;2023-08-01T00:52:46;39.45;33.90;57.41;;
50333;Laerm;36239;48.132;-1.210;2023-08-01T00:55:12;38.80;32.35;54.61;;
50333;Laerm;36239;48.132;-1.210;2023-08-01T00:57:39;38.31;33.44;50.43;;
50333;Laerm;36239;48.132;-1.210;2023-08-01T01:00:06;39.69;33.90;59.71;;
50333;Laerm;36239;48.132;-1.210;2023-08-01T01:02:32;40.15;33.90;61.77;;
50333;Laerm;36239;48.132;-1.210;2023-08-01T01:04:58;39.15;34.31;54.27;;
50333;Laerm;36239;48.132;-1.210;2023-08-01T01:07:24;39.03;34.31;49.84;;
50333;Laerm;36239;48.132;-1.210;2023-08-01T01:09:51;41.41;33.44;64.68;;
50333;Laerm;36239;48.132;-1.210;2023-08-01T01:12:17;39.74;34.69;59.37;;
50333;Laerm;36239;48.132;-1.210;2023-08-01T01:14:43;37.90;33.44;44.62;;
50333;Laerm;36239;48.132;-1.210;2023-08-01T01:17:09;39.32;33.90;60.40;;
50333;Laerm;36239;48.132;-1.210;2023-08-01T01:19:35;38.19;34.31;43.90;;
50333;Laerm;36239;48.132;-1.210;2023-08-01T01:22:02;38.23;33.44;43.39;;
50333;Laerm;36239;48.132;-1.210;2023-08-01T01:24:29;38.31;32.93;47.12;;
50333;Laerm;36239;48.132;-1.210;2023-08-01T01:26:55;38.34;33.44;59.45;;
50333;Laerm;36239;48.132;-1.210;2023-08-01T01:29:22;38.04;32.93;43.09;;
50333;Laerm;36239;48.132;-1.210;2023-08-01T01:31:49;38.09;32.93;42.88;;
50333;Laerm;36239;48.132;-1.210;2023-08-01T01:34:15;38.08;33.90;42.65;;
50333;Laerm;36239;48.132;-1.210;2023-08-01T01:36:41;39.26;32.93;58.23;;
50333;Laerm;36239;48.132;-1.210;2023-08-01T01:39:07;38.56;33.90;50.51;;
50333;Laerm;36239;48.132;-1.210;2023-08-01T01:41:33;51.82;32.35;74.07;;
50333;Laerm;36239;48.132;-1.210;2023-08-01T01:43:59;41.12;32.93;62.90;;
50333;Laerm;36239;48.132;-1.210;2023-08-01T01:46:25;39.06;33.44;50.74;;
50333;Laerm;36239;48.132;-1.210;2023-08-01T01:48:51;39.30;34.31;47.26;;
50333;Laerm;36239;48.132;-1.210;2023-08-01T01:51:19;38.13;33.44;53.69;;
50333;Laerm;36239;48.132;-1.210;2023-08-01T01:53:45;38.10;33.90;49.98;;
50333;Laerm;36239;48.132;-1.210;2023-08-01T01:56:10;38.73;34.69;57.00;;
50333;Laerm;36239;48.132;-1.210;2023-08-01T01:58:36;39.03;34.69;50.55;;
50333;Laerm;36239;48.132;-1.210;2023-08-01T02:01:02;37.87;32.93;45.30;;
50333;Laerm;36239;48.132;-1.210;2023-08-01T02:03:28;58.82;33.44;83.75;;
50333;Laerm;36239;48.132;-1.210;2023-08-01T02:05:54;38.49;33.44;52.78;;
50333;Laerm;36239;48.132;-1.210;2023-08-01T02:08:20;45.27;33.90;71.29;;
50333;Laerm;36239;48.132;-1.210;2023-08-01T02:10:47;40.70;35.36;65.62;;
50333;Laerm;36239;48.132;-1.210;2023-08-01T02:13:13;39.34;35.66;48.67;;
50333;Laerm;36239;48.132;-1.210;2023-08-01T02:15:39;38.45;34.31;42.71;;
50333;Laerm;36239;48.132;-1.210;2023-08-01T02:18:05;38.17;33.90;41.89;;
50333;Laerm;36239;48.132;-1.210;2023-08-01T02:20:31;40.03;34.31;64.09;;
50333;Laerm;36239;48.132;-1.210;2023-08-01T02:22:57;44.28;35.36;70.18;;
50333;Laerm;36239;48.132;-1.210;2023-08-01T02:25:23;42.27;34.69;67.82;;
50333;Laerm;36239;48.132;-1.210;2023-08-01T02:27:49;49.69;35.94;80.13;;
50333;Laerm;36239;48.132;-1.210;2023-08-01T02:30:15;54.26;34.69;76.64;;
50333;Laerm;36239;48.132;-1.210;2023-08-01T02:32:41;64.67;35.59;89.45;;
50333;Laerm;36239;48.132;-1.210;2023-08-01T02:35:08;55.91;36.20;84.02;;
50333;Laerm;36239;48.132;-1.210;2023-08-01T02:37:34;46.77;36.20;72.99;;
50333;Laerm;36239;48.132;-1.210;2023-08-01T02:40:01;38.99;35.94;53.90;;
50333;Laerm;36239;48.132;-1.210;2023-08-01T02:42:27;40.26;35.94;62.59;;
50333;Laerm;36239;48.132;-1.210;2023-08-01T02:44:53;48.53;34.31;73.90;;
50333;Laerm;36239;48.132;-1.210;2023-08-01T02:47:19;39.49;35.66;53.48;;
50333;Laerm;36239;48.132;-1.210;2023-08-01T02:49:45;49.12;35.04;72.93;;
50333;Laerm;36239;48.132;-1.210;2023-08-01T02:52:11;48.95;34.69;74.72;;
50333;Laerm;36239;48.132;-1.210;2023-08-01T02:54:37;43.87;34.31;69.22;;
50333;Laerm;36239;48.132;-1.210;2023-08-01T02:57:03;55.58;35.66;85.58;;
50333;Laerm;36239;48.132;-1.210;2023-08-01T02:59:29;53.44;34.31;78.26;;
50333;Laerm;36239;48.132;-1.210;2023-08-01T03:01:55;51.07;35.36;79.00;;
50333;Laerm;36239;48.132;-1.210;2023-08-01T03:04:21;47.97;35.04;74.46;;
50333;Laerm;36239;48.132;-1.210;2023-08-01T03:06:47;42.35;35.66;68.98;;
50333;Laerm;36239;48.132;-1.210;2023-08-01T03:09:13;38.56;33.90;50.92;;
50333;Laerm;36239;48.132;-1.210;2023-08-01T03:11:39;40.98;34.31;59.67;;
50333;Laerm;36239;48.132;-1.210;2023-08-01T03:14:05;38.95;35.04;48.21;;
50333;Laerm;36239;48.132;-1.210;2023-08-01T03:16:31;39.19;34.31;43.94;;
50333;Laerm;36239;48.132;-1.210;2023-08-01T03:18:57;38.51;34.31;42.41;;
50333;Laerm;36239;48.132;-1.210;2023-08-01T03:21:25;39.54;35.01;57.99;;
50333;Laerm;36239;48.132;-1.210;2023-08-01T03:23:52;38.42;35.04;42.16;;
50333;Laerm;36239;48.132;-1.210;2023-08-01T03:26:18;38.61;33.90;43.19;;
50333;Laerm;36239;48.132;-1.210;2023-08-01T03:28:44;38.60;33.90;46.52;;
50333;Laerm;36239;48.132;-1.210;2023-08-01T03:31:10;39.33;34.31;56.19;;
50333;Laerm;36239;48.132;-1.210;2023-08-01T03:33:36;39.08;34.31;47.10;;
50333;Laerm;36239;48.132;-1.210;2023-08-01T03:36:02;38.57;34.69;46.33;;
50333;Laerm;36239;48.132;-1.210;2023-08-01T03:38:29;39.39;35.66;44.27;;
50333;Laerm;36239;48.132;-1.210;2023-08-01T03:40:55;42.29;34.31;64.94;;
50333;Laerm;36239;48.132;-1.210;2023-08-01T03:43:21;38.83;34.31;53.19;;
50333;Laerm;36239;48.132;-1.210;2023-08-01T03:45:49;38.69;35.36;42.71;;
50333;Laerm;36239;48.132;-1.210;2023-08-01T03:48:16;39.04;35.04;50.74;;
50333;Laerm;36239;48.132;-1.210;2023-08-01T03:50:42;39.56;33.90;58.25;;
50333;Laerm;36239;48.132;-1.210;2023-08-01T03:53:08;38.93;35.04;45.75;;
50333;Laerm;36239;48.132;-1.210;2023-08-01T03:55:34;39.03;34.31;59.98;;
50333;Laerm;36239;48.132;-1.210;2023-08-01T03:58:00;39.14;33.44;60.68;;
50333;Laerm;36239;48.132;-1.210;2023-08-01T04:00:26;39.52;35.04;43.81;;
50333;Laerm;36239;48.132;-1.210;2023-08-01T04:03:01;38.72;34.69;45.46;;
50333;Laerm;36239;48.132;-1.210;2023-08-01T04:05:27;41.90;35.66;55.13;;
50333;Laerm;36239;48.132;-1.210;2023-08-01T04:07:53;38.78;35.01;51.04;;
50333;Laerm;36239;48.132;-1.210;2023-08-01T04:10:21;39.06;35.36;51.29;;
50333;Laerm;36239;48.132;-1.210;2023-08-01T04:12:47;39.72;33.90;50.43;;
50333;Laerm;36239;48.132;-1.210;2023-08-01T04:15:13;40.88;35.36;48.42;;
50333;Laerm;36239;48.132;-1.210;2023-08-01T04:17:39;40.93;35.36;52.03;;
50333;Laerm;36239;48.132;-1.210;2023-08-01T04:20:05;40.47;34.69;48.80;;
50333;Laerm;36239;48.132;-1.210;2023-08-01T04:22:31;40.11;35.01;47.20;;
50333;Laerm;36239;48.132;-1.210;2023-08-01T04:24:57;40.10;34.69;52.25;;
50333;Laerm;36239;48.132;-1.210;2023-08-01T04:27:23;41.35;36.69;59.08;;
50333;Laerm;36239;48.132;-1.210;2023-08-01T04:29:49;40.55;35.04;61.14;;
50333;Laerm;36239;48.132;-1.210;2023-08-01T04:32:15;39.23;35.66;43.68;;
50333;Laerm;36239;48.132;-1.210;2023-08-01T04:34:41;41.55;34.31;68.99;;
50333;Laerm;36239;48.132;-1.210;2023-08-01T04:37:07;39.08;35.94;47.04;;
50333;Laerm;36239;48.132;-1.210;2023-08-01T04:39:33;39.15;35.66;52.79;;
50333;Laerm;36239;48.132;-1.210;2023-08-01T04:41:59;40.16;34.69;59.51;;
50333;Laerm;36239;48.132;-1.210;2023-08-01T04:44:25;40.03;36.20;63.06;;
50333;Laerm;36239;48.132;-1.210;2023-08-01T04:46:51;40.50;35.66;49.84;;
50333;Laerm;36239;48.132;-1.210;2023-08-01T04:49:17;40.86;36.69;53.41;;
50333;Laerm;36239;48.132;-1.210;2023-08-01T04:51:44;40.54;35.66;47.32;;
50333;Laerm;36239;48.132;-1.210;2023-08-01T04:54:10;40.99;37.32;45.36;;
50333;Laerm;36239;48.132;-1.210;2023-08-01T04:56:36;44.21;36.20;68.02;;
50333;Laerm;36239;48.132;-1.210;2023-08-01T04:59:02;39.82;35.94;50.82;;
50333;Laerm;36239;48.132;-1.210;2023-08-01T05:01:28;41.15;37.12;56.70;;
50333;Laerm;36239;48.132;-1.210;2023-08-01T05:03:54;44.54;36.69;75.00;;
50333;Laerm;36239;48.132;-1.210;2023-08-01T05:06:20;39.74;35.94;47.68;;
50333;Laerm;36239;48.132;-1.210;2023-08-01T05:08:46;40.26;35.04;50.42;;
50333;Laerm;36239;48.132;-1.210;2023-08-01T05:11:12;40.15;36.20;59.85;;
50333;Laerm;36239;48.132;-1.210;2023-08-01T05:13:38;41.30;36.45;59.64;;
50333;Laerm;36239;48.132;-1.210;2023-08-01T05:16:04;44.83;36.45;67.56;;
50333;Laerm;36239;48.132;-1.210;2023-08-01T05:18:30;40.53;37.12;45.75;;
50333;Laerm;36239;48.132;-1.210;2023-08-01T05:20:56;41.48;37.53;56.36;;
50333;Laerm;36239;48.132;-1.210;2023-08-01T05:23:22;40.59;37.32;46.87;;
50333;Laerm;36239;48.132;-1.210;2023-08-01T05:25:48;40.89;38.05;45.30;;
50333;Laerm;36239;48.132;-1.210;2023-08-01T05:28:14;40.58;36.20;53.71;;
50333;Laerm;36239;48.132;-1.210;2023-08-01T05:30:41;42.47;36.69;59.10;;
50333;Laerm;36239;48.132;-1.210;2023-08-01T05:33:07;42.55;37.52;54.91;;
50333;Laerm;36239;48.132;-1.210;2023-08-01T05:35:33;44.86;37.52;58.39;;
50333;Laerm;36239;48.132;-1.210;2023-08-01T05:37:59;41.92;37.52;55.87;;
50333;Laerm;36239;48.132;-1.210;2023-08-01T05:40:25;41.95;37.70;60.75;;
50333;Laerm;36239;48.132;-1.210;2023-08-01T05:42:51;40.70;37.88;52.07;;
50333;Laerm;36239;48.132;-1.210;2023-08-01T05:45:17;41.22;38.05;53.53;;
50333;Laerm;36239;48.132;-1.210;2023-08-01T05:47:43;41.93;38.52;67.46;;
50333;Laerm;36239;48.132;-1.210;2023-08-01T05:50:09;41.31;38.67;44.73;;
50333;Laerm;36239;48.132;-1.210;2023-08-01T05:52:36;44.81;37.52;56.96;;
50333;Laerm;36239;48.132;-1.210;2023-08-01T05:55:02;42.24;37.88;55.88;;
50333;Laerm;36239;48.132;-1.210;2023-08-01T05:57:28;40.74;37.32;53.07;;
50333;Laerm;36239;48.132;-1.210;2023-08-01T05:59:55;42.27;37.32;65.81;;
50333;Laerm;36239;48.132;-1.210;2023-08-01T06:02:21;40.45;36.69;46.30;;
50333;Laerm;36239;48.132;-1.210;2023-08-01T06:04:47;45.91;37.12;67.58;;
50333;Laerm;36239;48.132;-1.210;2023-08-01T06:07:13;41.41;37.52;61.90;;
50333;Laerm;36239;48.132;-1.210;2023-08-01T06:09:39;41.44;38.05;53.80;;
50333;Laerm;36239;48.132;-1.210;2023-08-01T06:12:05;41.47;38.32;49.63;;
50333;Laerm;36239;48.132;-1.210;2023-08-01T06:14:31;51.61;38.05;83.06;;
50333;Laerm;36239;48.132;-1.210;2023-08-01T06:16:57;40.80;37.52;56.32;;
50333;Laerm;36239;48.132;-1.210;2023-08-01T06:19:23;47.18;37.12;65.01;;
50333;Laerm;36239;48.132;-1.210;2023-08-01T06:21:49;43.33;36.45;66.60;;
50333;Laerm;36239;48.132;-1.210;2023-08-01T06:24:15;41.62;37.70;56.81;;
50333;Laerm;36239;48.132;-1.210;2023-08-01T06:26:41;42.07;37.88;54.91;;
50333;Laerm;36239;48.132;-1.210;2023-08-01T06:29:07;45.12;37.88;65.35;;
50333;Laerm;36239;48.132;-1.210;2023-08-01T06:31:33;41.66;37.12;61.61;;
50333;Laerm;36239;48.132;-1.210;2023-08-01T06:33:59;42.20;36.69;59.44;;
50333;Laerm;36239;48.132;-1.210;2023-08-01T06:36:25;42.13;36.45;67.02;;
50333;Laerm;36239;48.132;-1.210;2023-08-01T06:38:51;41.49;37.52;58.30;;
50333;Laerm;36239;48.132;-1.210;2023-08-01T06:41:17;41.61;37.52;58.51;;
50333;Laerm;36239;48.132;-1.210;2023-08-01T06:43:43;42.22;37.52;63.26;;
50333;Laerm;36239;48.132;-1.210;2023-08-01T06:46:09;41.19;37.88;47.50;;
50333;Laerm;36239;48.132;-1.210;2023-08-01T06:48:35;43.30;37.88;66.28;;
50333;Laerm;36239;48.132;-1.210;2023-08-01T06:51:01;42.47;37.32;63.69;;
50333;Laerm;36239;48.132;-1.210;2023-08-01T06:53:30;42.41;37.12;64.02;;
50333;Laerm;36239;48.132;-1.210;2023-08-01T06:55:56;41.96;37.70;62.42;;
50333;Laerm;36239;48.132;-1.210;2023-08-01T06:58:22;41.60;37.32;63.28;;
50333;Laerm;36239;48.132;-1.210;2023-08-01T07:00:48;43.07;38.05;66.68;;
50333;Laerm;36239;48.132;-1.210;2023-08-01T07:03:14;41.90;37.32;57.74;;
50333;Laerm;36239;48.132;-1.210;2023-08-01T07:05:40;40.37;37.12;46.91;;
50333;Laerm;36239;48.132;-1.210;2023-08-01T07:08:06;41.45;36.69;56.30;;
50333;Laerm;36239;48.132;-1.210;2023-08-01T07:10:36;41.65;37.32;54.63;;
50333;Laerm;36239;48.132;-1.210;2023-08-01T07:13:02;45.75;37.12;65.94;;
50333;Laerm;36239;48.132;-1.210;2023-08-01T07:15:30;42.39;36.34;55.62;;
50333;Laerm;36239;48.132;-1.210;2023-08-01T07:17:56;41.96;37.12;66.46;;
50333;Laerm;36239;48.132;-1.210;2023-08-01T07:20:22;51.44;37.32;79.43;;
50333;Laerm;36239;48.132;-1.210;2023-08-01T07:22:48;48.67;36.91;69.32;;
50333;Laerm;36239;48.132;-1.210;2023-08-01T07:25:14;40.76;37.12;61.61;;
50333;Laerm;36239;48.132;-1.210;2023-08-01T07:27:42;43.36;36.20;70.80;;
50333;Laerm;36239;48.132;-1.210;2023-08-01T07:30:08;43.81;37.32;70.94;;
50333;Laerm;36239;48.132;-1.210;2023-08-01T07:32:36;53.46;38.99;81.38;;
50333;Laerm;36239;48.132;-1.210;2023-08-01T07:35:04;49.87;38.37;78.50;;
50333;Laerm;36239;48.132;-1.210;2023-08-01T07:37:30;48.46;37.70;81.91;;
50333;Laerm;36239;48.132;-1.210;2023-08-01T07:39:56;45.66;38.21;67.03;;
50333;Laerm;36239;48.132;-1.210;2023-08-01T07:42:22;43.66;38.21;71.90;;
50333;Laerm;36239;48.132;-1.210;2023-08-01T07:44:49;41.17;36.91;65.51;;
50333;Laerm;36239;48.132;-1.210;2023-08-01T07:47:14;63.31;37.70;89.94;;
50333;Laerm;36239;48.132;-1.210;2023-08-01T07:49:40;52.55;37.88;81.16;;
50333;Laerm;36239;48.132;-1.210;2023-08-01T07:52:07;42.19;37.88;58.92;;
50333;Laerm;36239;48.132;-1.210;2023-08-01T07:54:33;48.06;37.70;77.95;;
50333;Laerm;36239;48.132;-1.210;2023-08-01T07:56:59;43.16;37.12;67.31;;
50333;Laerm;36239;48.132;-1.210;2023-08-01T07:59:25;45.87;37.70;68.47;;
50333;Laerm;36239;48.132;-1.210;2023-08-01T08:01:51;42.40;36.91;64.44;;
50333;Laerm;36239;48.132;-1.210;2023-08-01T08:04:18;44.85;37.52;71.55;;
50333;Laerm;36239;48.132;-1.210;2023-08-01T08:06:44;46.98;37.70;73.01;;
50333;Laerm;36239;48.132;-1.210;2023-08-01T08:09:10;43.31;37.32;66.06;;
50333;Laerm;36239;48.132;-1.210;2023-08-01T08:11:36;46.87;36.45;71.50;;
50333;Laerm;36239;48.132;-1.210;2023-08-01T08:14:02;44.60;37.88;72.84;;
50333;Laerm;36239;48.132;-1.210;2023-08-01T08:16:29;44.09;37.17;57.24;;
50333;Laerm;36239;48.132;-1.210;2023-08-01T08:18:55;48.39;37.70;78.49;;
50333;Laerm;36239;48.132;-1.210;2023-08-01T08:21:21;46.24;37.52;73.26;;
50333;Laerm;36239;48.132;-1.210;2023-08-01T08:23:47;49.69;36.91;76.94;;
50333;Laerm;36239;48.132;-1.210;2023-08-01T08:26:13;43.71;38.21;66.01;;
50333;Laerm;36239;48.132;-1.210;2023-08-01T08:28:39;45.55;37.70;72.37;;
50333;Laerm;36239;48.132;-1.210;2023-08-01T08:31:06;46.92;39.08;77.28;;
50333;Laerm;36239;48.132;-1.210;2023-08-01T08:33:32;45.11;38.81;69.47;;
50333;Laerm;36239;48.132;-1.210;2023-08-01T08:35:58;44.50;38.95;64.45;;
50333;Laerm;36239;48.132;-1.210;2023-08-01T08:38:24;43.78;38.67;68.53;;
50333;Laerm;36239;48.132;-1.210;2023-08-01T08:43:16;49.77;39.08;77.64;;
50333;Laerm;36239;48.132;-1.210;2023-08-01T08:45:42;46.32;37.88;73.29;;
50333;Laerm;36239;48.132;-1.210;2023-08-01T08:48:09;53.97;40.03;83.66;;
50333;Laerm;36239;48.132;-1.210;2023-08-01T08:50:38;43.81;38.21;69.96;;
50333;Laerm;36239;48.132;-1.210;2023-08-01T08:53:05;40.26;37.32;61.07;;
50333;Laerm;36239;48.132;-1.210;2023-08-01T08:55:37;44.22;38.05;68.78;;
50333;Laerm;36239;48.132;-1.210;2023-08-01T08:58:03;46.51;38.47;75.14;;
50333;Laerm;36239;48.132;-1.210;2023-08-01T09:00:30;40.79;37.88;44.19;;
50333;Laerm;36239;48.132;-1.210;2023-08-01T09:02:56;46.93;38.37;75.63;;
50333;Laerm;36239;48.132;-1.210;2023-08-01T09:05:22;46.49;38.37;72.09;;
50333;Laerm;36239;48.132;-1.210;2023-08-01T09:07:52;42.88;38.67;60.87;;
50333;Laerm;36239;48.132;-1.210;2023-08-01T09:10:20;43.80;37.70;71.67;;
50333;Laerm;36239;48.132;-1.210;2023-08-01T09:12:46;44.29;39.46;67.67;;
50333;Laerm;36239;48.132;-1.210;2023-08-01T09:15:12;47.71;37.88;70.88;;
50333;Laerm;36239;48.132;-1.210;2023-08-01T09:17:51;42.00;38.05;64.19;;
50333;Laerm;36239;48.132;-1.210;2023-08-01T09:20:18;51.24;39.08;80.83;;
50333;Laerm;36239;48.132;-1.210;2023-08-01T09:22:44;49.91;38.37;82.42;;
50333;Laerm;36239;48.132;-1.210;2023-08-01T09:25:11;46.24;38.67;73.41;;
50333;Laerm;36239;48.132;-1.210;2023-08-01T09:27:37;53.28;39.89;82.44;;
50333;Laerm;36239;48.132;-1.210;2023-08-01T09:30:10;46.83;39.46;73.78;;
50333;Laerm;36239;48.132;-1.210;2023-08-01T09:32:37;54.87;37.52;84.42;;
50333;Laerm;36239;48.132;-1.210;2023-08-01T09:35:03;40.56;37.32;57.36;;
50333;Laerm;36239;48.132;-1.210;2023-08-01T09:37:42;40.52;37.32;58.31;;
50333;Laerm;36239;48.132;-1.210;2023-08-01T09:40:09;56.81;37.52;83.39;;
50333;Laerm;36239;48.132;-1.210;2023-08-01T09:42:42;49.27;36.45;75.23;;
50333;Laerm;36239;48.132;-1.210;2023-08-01T09:45:14;45.80;38.81;67.53;;
50333;Laerm;36239;48.132;-1.210;2023-08-01T09:47:41;44.27;38.37;61.29;;
50333;Laerm;36239;48.132;-1.210;2023-08-01T09:50:11;43.05;37.52;61.48;;
50333;Laerm;36239;48.132;-1.210;2023-08-01T09:52:38;49.19;37.12;76.11;;
50333;Laerm;36239;48.132;-1.210;2023-08-01T09:55:05;46.33;37.53;77.86;;
50333;Laerm;36239;48.132;-1.210;2023-08-01T09:57:31;46.34;37.32;75.84;;
50333;Laerm;36239;48.132;-1.210;2023-08-01T09:59:58;44.15;37.12;71.69;;
50333;Laerm;36239;48.132;-1.210;2023-08-01T10:02:25;41.08;37.32;51.50;;
50333;Laerm;36239;48.132;-1.210;2023-08-01T10:04:54;43.30;36.69;69.79;;
50333;Laerm;36239;48.132;-1.210;2023-08-01T10:07:26;43.37;36.91;67.84;;
50333;Laerm;36239;48.132;-1.210;2023-08-01T10:09:53;41.06;36.91;61.26;;
50333;Laerm;36239;48.132;-1.210;2023-08-01T10:12:20;48.01;36.91;74.87;;
50333;Laerm;36239;48.132;-1.210;2023-08-01T10:14:48;43.46;37.12;71.23;;
50333;Laerm;36239;48.132;-1.210;2023-08-01T10:17:14;49.80;37.32;81.53;;
50333;Laerm;36239;48.132;-1.210;2023-08-01T10:19:40;48.13;36.91;75.25;;
50333;Laerm;36239;48.132;-1.210;2023-08-01T10:22:07;41.50;37.52;62.48;;
50333;Laerm;36239;48.132;-1.210;2023-08-01T10:24:35;47.45;37.52;75.36;;
50333;Laerm;36239;48.132;-1.210;2023-08-01T10:27:20;46.21;36.69;74.03;;
50333;Laerm;36239;48.132;-1.210;2023-08-01T10:29:56;43.85;37.70;68.57;;
50333;Laerm;36239;48.132;-1.210;2023-08-01T10:32:32;48.78;38.37;80.11;;
50333;Laerm;36239;48.132;-1.210;2023-08-01T10:34:58;41.50;36.20;62.71;;
50333;Laerm;36239;48.132;-1.210;2023-08-01T10:37:25;40.58;36.45;45.33;;
50333;Laerm;36239;48.132;-1.210;2023-08-01T10:39:57;50.04;36.69;78.62;;
50333;Laerm;36239;48.132;-1.210;2023-08-01T10:42:24;50.15;37.32;79.63;;
50333;Laerm;36239;48.132;-1.210;2023-08-01T10:44:50;45.52;35.36;71.73;;
50333;Laerm;36239;48.132;-1.210;2023-08-01T10:47:26;41.01;36.69;62.16;;
50333;Laerm;36239;48.132;-1.210;2023-08-01T10:49:54;41.38;35.66;69.65;;
50333;Laerm;36239;48.132;-1.210;2023-08-01T10:52:21;41.42;35.36;69.78;;
50333;Laerm;36239;48.132;-1.210;2023-08-01T10:55:02;43.99;36.45;75.03;;
50333;Laerm;36239;48.132;-1.210;2023-08-01T10:57:31;49.02;37.17;78.11;;
50333;Laerm;36239;48.132;-1.210;2023-08-01T10:59:58;48.21;36.45;76.76;;
50333;Laerm;36239;48.132;-1.210;2023-08-01T11:02:25;48.57;38.05;75.55;;
50333;Laerm;36239;48.132;-1.210;2023-08-01T11:05:11;52.07;38.21;78.19;;
50333;Laerm;36239;48.132;-1.210;2023-08-01T11:07:37;44.80;37.52;66.06;;
50333;Laerm;36239;48.132;-1.210;2023-08-01T11:10:07;46.23;37.12;70.91;;
50333;Laerm;36239;48.132;-1.210;2023-08-01T11:12:34;43.13;36.45;67.17;;
50333;Laerm;36239;48.132;-1.210;2023-08-01T11:15:01;42.02;36.45;63.02;;
50333;Laerm;36239;48.132;-1.210;2023-08-01T11:17:27;45.92;36.45;73.08;;
50333;Laerm;36239;48.132;-1.210;2023-08-01T11:20:04;50.05;37.12;81.46;;
50333;Laerm;36239;48.132;-1.210;2023-08-01T11:22:31;44.93;37.32;72.98;;
50333;Laerm;36239;48.132;-1.210;2023-08-01T11:24:57;40.70;35.94;62.24;;
50333;Laerm;36239;48.132;-1.210;2023-08-01T11:27:23;39.88;35.94;47.48;;
50333;Laerm;36239;48.132;-1.210;2023-08-01T11:29:49;53.48;37.70;70.45;;
50333;Laerm;36239;48.132;-1.210;2023-08-01T11:32:15;44.98;35.04;72.93;;
50333;Laerm;36239;48.132;-1.210;2023-08-01T11:34:42;41.46;36.20;61.76;;
50333;Laerm;36239;48.132;-1.210;2023-08-01T11:37:19;44.85;36.45;73.54;;
50333;Laerm;36239;48.132;-1.210;2023-08-01T11:39:46;46.72;36.45;70.60;;
50333;Laerm;36239;48.132;-1.210;2023-08-01T11:42:16;41.99;36.45;65.43;;
50333;Laerm;36239;48.132;-1.210;2023-08-01T11:44:43;41.66;36.91;60.79;;
50333;Laerm;36239;48.132;-1.210;2023-08-01T11:47:15;49.62;36.69;74.12;;
50333;Laerm;36239;48.132;-1.210;2023-08-01T11:49:45;47.87;37.52;70.90;;
50333;Laerm;36239;48.132;-1.210;2023-08-01T11:52:21;45.10;38.37;70.62;;
50333;Laerm;36239;48.132;-1.210;2023-08-01T11:54:47;49.73;38.67;74.74;;
50333;Laerm;36239;48.132;-1.210;2023-08-01T11:57:13;45.61;37.52;71.26;;
50333;Laerm;36239;48.132;-1.210;2023-08-01T11:59:46;41.70;37.52;56.52;;
50333;Laerm;36239;48.132;-1.210;2023-08-01T12:02:19;60.35;36.91;90.81;;
50333;Laerm;36239;48.132;-1.210;2023-08-01T12:04:45;45.71;37.12;73.84;;
50333;Laerm;36239;48.132;-1.210;2023-08-01T12:07:12;50.07;37.52;69.87;;
50333;Laerm;36239;48.132;-1.210;2023-08-01T12:09:38;55.75;39.08;84.84;;
50333;Laerm;36239;48.132;-1.210;2023-08-01T12:12:04;44.60;37.70;69.91;;
50333;Laerm;36239;48.132;-1.210;2023-08-01T12:14:30;45.37;35.94;73.20;;
50333;Laerm;36239;48.132;-1.210;2023-08-01T12:16:56;41.84;37.12;63.70;;
50333;Laerm;36239;48.132;-1.210;2023-08-01T12:19:22;49.44;37.32;77.91;;
50333;Laerm;36239;48.132;-1.210;2023-08-01T12:21:48;41.83;38.05;61.03;;
50333;Laerm;36239;48.132;-1.210;2023-08-01T12:24:15;41.93;37.32;59.48;;
50333;Laerm;36239;48.132;-1.210;2023-08-01T12:26:40;57.05;37.88;82.34;;
50333;Laerm;36239;48.132;-1.210;2023-08-01T12:29:06;44.27;38.21;67.86;;
50333;Laerm;36239;48.132;-1.210;2023-08-01T12:31:33;47.05;39.81;72.22;;
50333;Laerm;36239;48.132;-1.210;2023-08-01T12:33:59;44.59;38.95;67.74;;
50333;Laerm;36239;48.132;-1.210;2023-08-01T12:36:26;49.49;39.58;74.84;;
50333;Laerm;36239;48.132;-1.210;2023-08-01T12:38:52;52.24;39.70;76.66;;
50333;Laerm;36239;48.132;-1.210;2023-08-01T12:41:18;58.39;40.62;87.89;;
50333;Laerm;36239;48.132;-1.210;2023-08-01T12:43:44;52.03;39.81;81.24;;
50333;Laerm;36239;48.132;-1.210;2023-08-01T12:46:10;49.15;39.70;76.70;;
50333;Laerm;36239;48.132;-1.210;2023-08-01T12:48:36;50.90;40.62;76.89;;
50333;Laerm;36239;48.132;-1.210;2023-08-01T12:51:02;47.78;40.03;75.66;;
50333;Laerm;36239;48.132;-1.210;2023-08-01T12:53:28;48.56;39.08;81.98;;
50333;Laerm;36239;48.132;-1.210;2023-08-01T12:55:54;55.03;39.58;83.89;;
50333;Laerm;36239;48.132;-1.210;2023-08-01T12:58:20;50.44;39.46;76.72;;
50333;Laerm;36239;48.132;-1.210;2023-08-01T13:00:46;46.40;41.14;72.02;;
50333;Laerm;36239;48.132;-1.210;2023-08-01T13:03:12;56.20;40.33;88.02;;
50333;Laerm;36239;48.132;-1.210;2023-08-01T13:05:39;48.08;40.23;75.35;;
50333;Laerm;36239;48.132;-1.210;2023-08-01T13:08:06;56.54;39.46;85.08;;
50333;Laerm;36239;48.132;-1.210;2023-08-01T13:10:32;52.85;41.22;86.20;;
50333;Laerm;36239;48.132;-1.210;2023-08-01T13:12:59;59.19;38.81;91.00;;
50333;Laerm;36239;48.132;-1.210;2023-08-01T13:15:25;49.16;39.58;76.66;;
50333;Laerm;36239;48.132;-1.210;2023-08-01T13:17:51;43.44;38.81;67.11;;
50333;Laerm;36239;48.132;-1.210;2023-08-01T13:20:18;46.97;39.58;77.90;;
50333;Laerm;36239;48.132;-1.210;2023-08-01T13:22:48;46.11;39.46;72.28;;
50333;Laerm;36239;48.132;-1.210;2023-08-01T13:25:15;53.17;39.21;78.24;;
50333;Laerm;36239;48.132;-1.210;2023-08-01T13:27:41;55.50;39.34;79.25;;
50333;Laerm;36239;48.132;-1.210;2023-08-01T13:30:08;54.66;38.67;80.71;;
50333;Laerm;36239;48.132;-1.210;2023-08-01T13:32:34;54.91;40.33;83.13;;